createdAt,value
2022-09-11T00:00:00.165Z,996.75
2022-09-11T00:05:00.424Z,996.75
2022-09-11T00:10:00.142Z,996.75
2022-09-11T00:15:00.155Z,996.77
2022-09-11T00:20:00.396Z,996.79
2022-09-11T00:25:00.366Z,996.9
2022-09-11T00:30:00.360Z,996.83
2022-09-11T00:35:00.105Z,996.9
2022-09-11T00:40:00.229Z,996.94
2022-09-11T00:45:00.131Z,996.86
2022-09-11T00:50:00.101Z,996.85
2022-09-11T00:55:00.105Z,996.89
2022-09-11T01:00:00.430Z,996.83
2022-09-11T01:05:00.378Z,996.87
2022-09-11T01:10:00.393Z,996.97
2022-09-11T01:15:00.378Z,996.86
2022-09-11T01:20:00.134Z,996.84
2022-09-11T01:25:00.379Z,996.8
2022-09-11T01:30:00.116Z,996.8
2022-09-11T01:35:00.095Z,996.83
2022-09-11T01:40:00.175Z,996.81
2022-09-11T01:45:00.091Z,996.83
2022-09-11T01:50:00.106Z,996.92
2022-09-11T01:55:00.094Z,996.9
2022-09-11T02:00:00.167Z,996.94
2022-09-11T02:05:00.103Z,996.88
2022-09-11T02:10:00.130Z,996.89
2022-09-11T02:15:00.096Z,996.86
2022-09-11T02:20:00.153Z,996.91
2022-09-11T02:25:00.095Z,996.97
2022-09-11T02:30:00.132Z,996.93
2022-09-11T02:35:00.113Z,997.01
2022-09-11T02:40:00.225Z,996.92
2022-09-11T02:45:00.098Z,996.96
2022-09-11T02:50:00.123Z,996.95
2022-09-11T02:55:00.115Z,996.94
2022-09-11T03:00:00.138Z,996.96
2022-09-11T03:05:00.131Z,997.04
2022-09-11T03:10:00.107Z,996.94
2022-09-11T03:15:00.109Z,996.97
2022-09-11T03:20:00.120Z,997.07
2022-09-11T03:25:00.100Z,997.11
2022-09-11T03:30:00.121Z,997.18
2022-09-11T03:35:00.106Z,997.18
2022-09-11T03:40:00.215Z,997.2
2022-09-11T03:45:00.094Z,997.17
2022-09-11T03:50:00.085Z,997.26
2022-09-11T03:55:00.107Z,997.35
2022-09-11T04:00:00.143Z,997.32
2022-09-11T04:05:00.086Z,997.4
2022-09-11T04:10:00.091Z,997.49
2022-09-11T04:15:00.123Z,997.53
2022-09-11T04:20:00.108Z,997.55
2022-09-11T04:25:00.102Z,997.54
2022-09-11T04:30:00.118Z,997.56
2022-09-11T04:35:00.098Z,997.59
2022-09-11T04:40:00.199Z,997.67
2022-09-11T04:45:00.092Z,997.69
2022-09-11T04:50:00.089Z,997.68
2022-09-11T04:55:00.106Z,997.72
2022-09-11T05:00:00.157Z,997.72
2022-09-11T05:05:00.085Z,997.84
2022-09-11T05:10:00.123Z,997.89
2022-09-11T05:15:00.123Z,997.88
2022-09-11T05:20:00.112Z,997.96
2022-09-11T05:25:00.084Z,998.02
2022-09-11T05:30:00.097Z,998.06
2022-09-11T05:35:00.117Z,998.02
2022-09-11T05:40:00.229Z,998.13
2022-09-11T05:45:00.126Z,998.21
2022-09-11T05:50:00.093Z,998.31
2022-09-11T05:55:00.085Z,998.46
2022-09-11T06:00:00.131Z,998.55
2022-09-11T06:05:00.102Z,998.53
2022-09-11T06:10:03.091Z,998.67
2022-09-11T06:15:00.101Z,998.73
2022-09-11T06:20:00.140Z,998.79
2022-09-11T06:25:00.119Z,998.93
2022-09-11T06:30:00.114Z,998.98
2022-09-11T06:35:00.090Z,999.08
2022-09-11T06:40:00.213Z,998.99
2022-09-11T06:45:00.091Z,999.16
2022-09-11T06:50:00.077Z,999.2
2022-09-11T06:55:00.094Z,999.21
2022-09-11T07:00:00.147Z,999.31
2022-09-11T07:05:00.092Z,999.26
2022-09-11T07:10:00.092Z,999.28
2022-09-11T07:15:00.126Z,999.26
2022-09-11T07:20:00.130Z,999.34
2022-09-11T07:25:00.132Z,999.35
2022-09-11T07:30:00.109Z,999.3
2022-09-11T07:35:00.094Z,999.36
2022-09-11T07:40:00.193Z,999.41
2022-09-11T07:45:00.119Z,999.46
2022-09-11T07:50:00.085Z,999.5
2022-09-11T07:55:00.111Z,999.52
2022-09-11T08:00:00.162Z,999.54
2022-09-11T08:05:00.112Z,999.63
2022-09-11T08:10:23.570Z,999.64
2022-09-11T08:15:00.134Z,999.69
2022-09-11T08:20:00.114Z,999.72
2022-09-11T08:25:00.086Z,999.79
2022-09-11T08:30:00.103Z,999.79
2022-09-11T08:35:00.111Z,999.85
2022-09-11T08:40:00.158Z,999.93
2022-09-11T08:45:00.124Z,999.81
2022-09-11T08:50:00.330Z,999.91
2022-09-11T08:55:00.141Z,999.99
2022-09-11T09:00:00.136Z,999.93
2022-09-11T09:05:00.125Z,1000.07
2022-09-11T09:10:00.090Z,1000.02
2022-09-11T09:15:00.105Z,1000.1
2022-09-11T09:20:00.134Z,1000.19
2022-09-11T09:25:00.086Z,1000.18
2022-09-11T09:30:00.117Z,1000.26
2022-09-11T09:35:00.102Z,1000.29
2022-09-11T09:40:00.174Z,1000.34
2022-09-11T09:45:00.175Z,1000.39
2022-09-11T09:50:00.094Z,1000.45
2022-09-11T09:55:00.100Z,1000.51
2022-09-11T10:00:00.184Z,1000.59
2022-09-11T10:05:00.127Z,1000.57
2022-09-11T10:10:00.103Z,1000.73
2022-09-11T10:15:00.105Z,1000.73
2022-09-11T10:20:00.124Z,1000.81
2022-09-11T10:25:00.086Z,1000.85
2022-09-11T10:30:00.152Z,1000.81
2022-09-11T10:35:00.095Z,1000.75
2022-09-11T10:40:00.207Z,1000.84
2022-09-11T10:45:00.117Z,1000.87
2022-09-11T10:50:00.089Z,1000.99
2022-09-11T10:55:00.164Z,1000.93
2022-09-11T11:00:00.150Z,1000.99
2022-09-11T11:05:00.077Z,1001.03
2022-09-11T11:10:00.155Z,1001.08
2022-09-11T11:15:00.111Z,1001.12
2022-09-11T11:20:00.112Z,1001.13
2022-09-11T11:25:00.090Z,1001.2
2022-09-11T11:30:00.121Z,1001.19
2022-09-11T11:35:00.076Z,1001.25
2022-09-11T11:40:00.212Z,1001.32
2022-09-11T11:45:00.088Z,1001.31
2022-09-11T11:50:00.119Z,1001.33
2022-09-11T11:55:00.107Z,1001.23
2022-09-11T12:00:00.186Z,1001.34
2022-09-11T12:05:00.089Z,1001.35
2022-09-11T12:10:00.118Z,1001.24
2022-09-11T12:15:00.092Z,1001.36
2022-09-11T12:20:00.103Z,1001.33
2022-09-11T12:25:00.094Z,1001.3
2022-09-11T12:30:00.101Z,1001.19
2022-09-11T12:35:00.088Z,1001.24
2022-09-11T12:40:00.230Z,1001.33
2022-09-11T12:45:00.100Z,1001.35
2022-09-11T12:50:00.090Z,1001.31
2022-09-11T12:55:00.099Z,1001.37
2022-09-11T13:00:00.141Z,1001.22
2022-09-11T13:05:00.080Z,1001.2
2022-09-11T13:10:00.092Z,1001.16
2022-09-11T13:15:00.099Z,1001.08
2022-09-11T13:20:00.119Z,1001.18
2022-09-11T13:25:00.084Z,1001.16
2022-09-11T13:30:00.122Z,1001.1
2022-09-11T13:35:00.105Z,1000.98
2022-09-11T13:40:00.218Z,1001.08
2022-09-11T13:45:00.106Z,1001.06
2022-09-11T13:50:00.112Z,1001.08
2022-09-11T13:55:00.109Z,1001.02
2022-09-11T14:00:00.127Z,1000.94
2022-09-11T14:05:00.088Z,1000.87
2022-09-11T14:10:00.142Z,1000.85
2022-09-11T14:15:00.111Z,1000.83
2022-09-11T14:20:01.064Z,1000.79
2022-09-11T14:25:00.118Z,1000.76
2022-09-11T14:30:00.104Z,1000.84
2022-09-11T14:35:00.180Z,1000.8
2022-09-11T14:40:00.337Z,1000.88
2022-09-11T14:45:00.108Z,1000.84
2022-09-11T14:50:00.123Z,1000.9
2022-09-11T14:55:00.118Z,1000.83
2022-09-11T15:00:00.167Z,1000.83
2022-09-11T15:05:00.088Z,1000.75
2022-09-11T15:10:00.124Z,1000.83
2022-09-11T15:15:00.349Z,1000.77
2022-09-11T15:20:00.137Z,1000.69
2022-09-11T15:25:00.118Z,1000.69
2022-09-11T15:30:00.112Z,1000.53
2022-09-11T15:35:00.086Z,1000.47
2022-09-11T15:40:00.191Z,1000.56
2022-09-11T15:45:00.083Z,1000.5
2022-09-11T15:50:00.088Z,1000.54
2022-09-11T15:55:00.112Z,1000.58
2022-09-11T16:00:00.169Z,1000.56
2022-09-11T16:05:00.104Z,1000.62
2022-09-11T16:10:00.117Z,1000.51
2022-09-11T16:15:00.106Z,1000.53
2022-09-11T16:20:00.137Z,1000.5
2022-09-11T16:25:00.116Z,1000.48
2022-09-11T16:30:26.138Z,1000.38
2022-09-11T16:35:00.114Z,1000.39
2022-09-11T16:40:00.234Z,1000.47
2022-09-11T16:45:00.100Z,1000.34
2022-09-11T16:50:06.806Z,1000.5
2022-09-11T16:55:00.130Z,1000.56
2022-09-11T17:00:00.222Z,1000.5
2022-09-11T17:05:00.096Z,1000.53
2022-09-11T17:10:00.105Z,1000.46
2022-09-11T17:15:00.126Z,1000.43
2022-09-11T17:20:00.116Z,1000.41
2022-09-11T17:25:00.136Z,1000.37
2022-09-11T17:30:00.206Z,1000.44
2022-09-11T17:35:00.141Z,1000.42
2022-09-11T17:40:00.193Z,1000.45
2022-09-11T17:45:00.091Z,1000.45
2022-09-11T17:50:00.091Z,1000.44
2022-09-11T17:55:00.148Z,1000.57
2022-09-11T18:00:00.165Z,1000.61
2022-09-11T18:05:00.099Z,1000.66
2022-09-11T18:10:00.135Z,1000.68
2022-09-11T18:15:00.094Z,1000.75
2022-09-11T18:20:00.137Z,1000.76
2022-09-11T18:25:00.119Z,1000.78
2022-09-11T18:30:00.110Z,1000.88
2022-09-11T18:35:00.340Z,1000.95
2022-09-11T18:40:00.259Z,1001.02
2022-09-11T18:45:00.161Z,1001.11
2022-09-11T18:50:00.121Z,1001.12
2022-09-11T18:55:00.357Z,1001.17
2022-09-11T19:00:00.402Z,1001.16
2022-09-11T19:05:00.315Z,1001.16
2022-09-11T19:10:00.304Z,1001.22
2022-09-11T19:15:00.269Z,1001.17
2022-09-11T19:20:00.436Z,1001.21
2022-09-11T19:25:00.163Z,1001.18
2022-09-11T19:30:00.589Z,1001.16
2022-09-11T19:35:00.400Z,1001.13
2022-09-11T19:40:00.461Z,1001.1
2022-09-11T19:45:00.347Z,1001.06
2022-09-11T19:50:00.430Z,1001.19
2022-09-11T19:55:00.392Z,1001.25
2022-09-11T20:00:00.499Z,1001.25
2022-09-11T20:05:00.450Z,1001.19
2022-09-11T20:10:00.492Z,1001.27
2022-09-11T20:15:00.543Z,1001.24
2022-09-11T20:20:00.522Z,1001.21
2022-09-11T20:25:00.574Z,1001.36
2022-09-11T20:30:00.673Z,1001.41
2022-09-11T20:35:00.511Z,1001.37
2022-09-11T20:40:00.607Z,1001.34
2022-09-11T20:45:00.606Z,1001.29
2022-09-11T20:50:00.676Z,1001.29
2022-09-11T20:55:00.659Z,1001.33
2022-09-11T21:00:00.667Z,1001.25
2022-09-11T21:05:00.691Z,1001.2
2022-09-11T21:10:00.086Z,1001.17
2022-09-11T21:15:00.118Z,1001.22
2022-09-11T21:20:00.164Z,1001.17
2022-09-11T21:25:00.099Z,1001.11
2022-09-11T21:30:00.161Z,1001.2
2022-09-11T21:35:00.110Z,1001.16
2022-09-11T21:40:00.183Z,1001.16
2022-09-11T21:45:00.096Z,1001.25
2022-09-11T21:50:00.124Z,1001.24
2022-09-11T21:55:00.110Z,1001.22
2022-09-11T22:00:00.237Z,1001.18
2022-09-11T22:05:00.124Z,1001.21
2022-09-11T22:10:00.140Z,1001.16
2022-09-11T22:15:00.114Z,1001.13
2022-09-11T22:20:00.165Z,1001.17
2022-09-11T22:25:00.110Z,1001.26
2022-09-11T22:30:00.128Z,1001.24
2022-09-11T22:35:00.127Z,1001.28
2022-09-11T22:40:00.157Z,1001.2
2022-09-11T22:45:00.117Z,1001.31
2022-09-11T22:50:00.115Z,1001.3
2022-09-11T22:55:00.139Z,1001.24
2022-09-11T23:00:00.162Z,1001.36
2022-09-11T23:05:00.133Z,1001.26
2022-09-11T23:10:00.097Z,1001.32
2022-09-11T23:15:00.090Z,1001.34
2022-09-11T23:20:00.134Z,1001.25
2022-09-11T23:25:00.100Z,1001.18
2022-09-11T23:30:00.147Z,1001.17
2022-09-11T23:35:00.100Z,1001.18
2022-09-11T23:40:00.149Z,1001.23
2022-09-11T23:45:00.091Z,1001.23
2022-09-11T23:50:00.097Z,1001.21
2022-09-11T23:55:00.113Z,1001.02
